createdAt,value
2019-05-08T00:01:02.112Z,10.20
2019-05-08T00:03:33.108Z,10.07
2019-05-08T00:06:02.614Z,10.23
2019-05-08T00:08:32.137Z,9.50
2019-05-08T00:11:02.938Z,9.43
2019-05-08T00:13:32.490Z,10.07
2019-05-08T00:16:03.454Z,10.27
2019-05-08T00:18:32.641Z,9.77
2019-05-08T00:21:02.709Z,11.10
2019-05-08T00:23:32.643Z,8.90
2019-05-08T00:26:02.568Z,11.23
2019-05-08T00:28:33.415Z,9.23
2019-05-08T00:31:32.664Z,9.20
2019-05-08T00:34:08.756Z,10.47
2019-05-08T00:36:38.113Z,9.97
2019-05-08T00:39:08.057Z,9.43
2019-05-08T00:41:42.818Z,9.90
2019-05-08T00:44:12.943Z,9.27
2019-05-08T00:46:42.884Z,9.30
2019-05-08T00:49:13.065Z,9.90
2019-05-08T00:51:43.081Z,8.93
2019-05-08T00:54:15.387Z,10.13
2019-05-08T00:56:54.345Z,11.00
2019-05-08T00:59:44.913Z,9.90
2019-05-08T01:02:22.550Z,8.83
2019-05-08T01:04:52.400Z,9.50
2019-05-08T01:07:23.086Z,9.73
2019-05-08T01:09:53.126Z,10.03
2019-05-08T01:12:22.966Z,10.20
2019-05-08T01:14:52.622Z,9.77
2019-05-08T01:17:28.129Z,9.40
2019-05-08T01:19:57.475Z,8.47
2019-05-08T01:22:26.756Z,10.63
2019-05-08T01:24:56.161Z,10.13
2019-05-08T01:27:26.255Z,9.87
2019-05-08T01:29:55.660Z,9.50
2019-05-08T01:32:26.936Z,9.43
2019-05-08T01:34:56.308Z,9.70
2019-05-08T01:37:44.656Z,10.23
2019-05-08T01:40:22.880Z,11.00
2019-05-08T01:42:52.439Z,9.73
2019-05-08T01:45:22.771Z,9.43
2019-05-08T01:47:52.391Z,9.67
2019-05-08T01:50:22.786Z,10.40
2019-05-08T01:52:52.877Z,9.73
2019-05-08T01:55:22.760Z,10.10
2019-05-08T01:58:04.067Z,9.17
2019-05-08T02:00:23.293Z,9.30
2019-05-08T02:02:53.103Z,10.57
2019-05-08T02:05:22.635Z,9.90
2019-05-08T02:07:52.588Z,10.10
2019-05-08T02:10:22.612Z,10.67
2019-05-08T02:12:53.194Z,10.40
2019-05-08T02:15:23.097Z,10.83
2019-05-08T02:17:52.710Z,10.90
2019-05-08T02:20:42.266Z,9.30
2019-05-08T02:23:14.898Z,9.97
2019-05-08T02:26:06.253Z,10.90
2019-05-08T02:28:35.667Z,10.67
2019-05-08T02:31:05.003Z,11.07
2019-05-08T02:33:35.434Z,9.27
2019-05-08T02:36:04.937Z,11.33
2019-05-08T02:38:39.757Z,9.47
2019-05-08T02:41:10.899Z,11.30
2019-05-08T02:43:41.107Z,10.03
2019-05-08T02:46:10.365Z,11.03
2019-05-08T02:48:39.994Z,9.33
2019-05-08T02:51:11.241Z,9.70
2019-05-08T02:53:40.879Z,11.93
2019-05-08T02:56:10.865Z,11.60
2019-05-08T02:58:55.215Z,10.60
2019-05-08T03:01:15.335Z,9.80
2019-05-08T03:03:44.551Z,9.07
2019-05-08T03:06:13.968Z,10.30
2019-05-08T03:08:43.369Z,10.40
2019-05-08T03:11:12.775Z,9.90
2019-05-08T03:13:43.497Z,10.00
2019-05-08T03:16:12.966Z,10.30
2019-05-08T03:18:42.266Z,9.70
2019-05-08T03:21:11.660Z,10.93
2019-05-08T03:23:41.588Z,10.87
2019-05-08T03:26:34.338Z,11.17
2019-05-08T03:29:12.593Z,10.30
2019-05-08T03:31:54.690Z,9.07
2019-05-08T06:46:31.787Z,9.27
2019-05-08T06:49:01.526Z,9.67
2019-05-08T06:51:30.921Z,10.20
2019-05-08T06:54:00.288Z,11.27
2019-05-08T06:56:31.675Z,9.60
2019-05-08T06:59:00.935Z,10.80
2019-05-08T07:01:30.417Z,10.07
2019-05-08T07:04:02.821Z,10.47
2019-05-08T07:06:30.822Z,10.03
2019-05-08T07:09:00.329Z,9.43
2019-05-08T07:11:30.407Z,9.60
2019-05-08T07:14:00.373Z,9.90
2019-05-08T07:16:49.489Z,8.77
2019-05-08T07:19:36.986Z,10.40
2019-05-08T07:22:14.698Z,10.17
2019-05-08T07:24:46.017Z,9.33
2019-05-08T07:27:15.318Z,10.50
2019-05-08T07:30:03.577Z,9.90
2019-05-08T07:32:33.194Z,9.63
2019-05-08T07:35:06.714Z,9.70
2019-05-08T07:37:36.084Z,8.97
2019-05-08T07:40:05.562Z,8.80
2019-05-08T07:42:43.146Z,9.60
2019-05-08T07:45:12.599Z,8.27
2019-05-08T07:47:41.886Z,8.53
2019-05-08T07:50:11.309Z,8.73
2019-05-08T07:52:40.588Z,7.77
2019-05-08T07:55:10.209Z,8.50
2019-05-08T07:57:41.815Z,7.30
2019-05-08T08:00:13.917Z,7.30
2019-05-08T08:02:45.316Z,7.00
2019-05-08T08:05:14.664Z,7.60
2019-05-08T08:07:49.634Z,7.23
2019-05-08T08:10:19.914Z,7.13
2019-05-08T08:12:51.204Z,6.83
2019-05-08T08:15:34.766Z,7.40
2019-05-08T08:18:04.018Z,7.53
2019-05-08T08:20:33.265Z,7.07
2019-05-08T08:23:04.693Z,6.83
2019-05-08T08:25:34.336Z,6.23
2019-05-08T08:28:03.660Z,8.00
2019-05-08T08:30:32.992Z,7.10
2019-05-08T08:33:03.403Z,6.10
2019-05-08T08:35:35.862Z,6.30
2019-05-08T08:38:11.831Z,6.30
2019-05-08T08:40:42.207Z,5.33
2019-05-08T08:43:23.899Z,6.73
2019-05-08T08:46:11.017Z,5.60
2019-05-08T08:48:43.725Z,7.10
2019-05-08T08:51:22.301Z,6.70
2019-05-08T08:53:55.709Z,6.70
2019-05-08T08:56:24.903Z,6.97
2019-05-08T08:58:54.469Z,6.30
2019-05-08T09:01:23.683Z,6.47
2019-05-08T09:04:04.225Z,6.70
2019-05-08T09:06:33.457Z,6.50
2019-05-08T09:09:02.756Z,6.53
2019-05-08T09:11:32.050Z,6.60
2019-05-08T09:14:03.777Z,6.23
2019-05-08T09:16:32.427Z,7.30
2019-05-08T09:19:01.726Z,7.60
2019-05-08T09:21:50.447Z,6.13
2019-05-08T09:24:21.016Z,7.47
2019-05-08T09:26:50.332Z,7.90
2019-05-08T09:29:20.633Z,8.13
2019-05-08T09:31:54.488Z,6.57
2019-05-08T09:34:49.595Z,6.47
2019-05-08T09:37:20.108Z,6.50
2019-05-08T09:39:50.036Z,6.83
2019-05-08T09:42:19.453Z,6.30
2019-05-08T09:44:49.373Z,6.17
2019-05-08T09:47:31.527Z,6.53
2019-05-08T09:50:20.823Z,6.37
2019-05-08T09:52:54.094Z,7.23
2019-05-08T09:55:23.809Z,6.07
2019-05-08T09:57:54.028Z,6.53
2019-05-08T10:00:31.693Z,4.93
2019-05-08T10:03:01.151Z,5.87
2019-05-08T10:05:30.510Z,5.50
2019-05-08T10:08:00.128Z,5.30
2019-05-08T10:10:30.514Z,4.80
2019-05-08T10:13:00.081Z,5.90
2019-05-08T10:15:29.932Z,5.70
2019-05-08T10:17:59.659Z,6.00
2019-05-08T10:20:34.108Z,6.80
2019-05-08T10:23:00.418Z,5.40
2019-05-08T10:25:31.899Z,5.63
2019-05-08T10:28:00.763Z,6.13
2019-05-08T10:30:51.855Z,5.90
2019-05-08T10:33:21.199Z,5.90
2019-05-08T10:36:00.146Z,5.87
2019-05-08T10:38:30.587Z,5.17
2019-05-08T10:41:11.229Z,6.10
2019-05-08T10:43:40.529Z,6.03
2019-05-08T10:46:10.261Z,6.10
2019-05-08T10:48:40.392Z,5.80
2019-05-08T10:51:10.316Z,5.80
2019-05-08T10:53:39.692Z,5.70
2019-05-08T10:56:09.486Z,5.83
2019-05-08T10:58:40.430Z,5.23
2019-05-08T11:01:10.191Z,5.10
2019-05-08T11:03:40.469Z,5.40
2019-05-08T11:06:31.995Z,6.00
2019-05-08T11:09:19.395Z,6.20
2019-05-08T11:12:06.715Z,6.87
2019-05-08T11:14:36.066Z,6.97
2019-05-08T11:17:06.120Z,6.30
2019-05-08T11:19:35.300Z,5.63
2019-05-08T11:22:04.572Z,7.40
2019-05-08T11:24:33.927Z,7.30
2019-05-08T11:27:03.106Z,6.90
2019-05-08T11:29:32.398Z,9.90
2019-05-08T11:32:01.635Z,8.33
2019-05-08T11:34:31.916Z,7.67
2019-05-08T11:37:01.175Z,7.90
2019-05-08T11:39:30.448Z,8.23
2019-05-08T11:42:09.509Z,8.57
2019-05-08T11:45:00.052Z,8.73
2019-05-08T11:47:29.365Z,8.07
2019-05-08T11:50:00.376Z,8.43
2019-05-08T11:52:30.110Z,7.80
2019-05-08T11:55:00.007Z,7.77
2019-05-08T11:57:30.705Z,8.90
2019-05-08T12:00:00.010Z,9.43
2019-05-08T12:02:29.287Z,9.40
2019-05-08T12:04:59.521Z,8.30
2019-05-08T12:07:28.986Z,9.00
2019-05-08T12:09:59.411Z,7.77
2019-05-08T12:12:29.002Z,7.97
2019-05-08T12:15:00.524Z,8.33
2019-05-08T12:17:36.414Z,8.03
2019-05-08T12:20:01.525Z,7.53
2019-05-08T12:22:30.807Z,7.40
2019-05-08T12:25:02.861Z,8.10
2019-05-08T12:27:32.168Z,7.10
2019-05-08T12:30:11.679Z,7.30
2019-05-08T12:32:50.531Z,6.90
2019-05-08T12:35:25.911Z,7.70
2019-05-08T12:37:56.628Z,6.87
2019-05-08T12:40:26.075Z,7.50
2019-05-08T12:42:55.493Z,6.90
2019-05-08T12:45:24.873Z,6.20
2019-05-08T12:47:54.165Z,6.80
2019-05-08T12:50:31.769Z,7.00
2019-05-08T12:53:01.045Z,6.77
2019-05-08T12:55:36.392Z,6.07
2019-05-08T12:58:05.643Z,6.63
2019-05-08T13:00:59.796Z,5.70
2019-05-08T13:03:44.570Z,5.50
2019-05-08T13:06:17.572Z,6.00
2019-05-08T13:08:31.114Z,6.00
2019-05-08T13:11:00.430Z,6.57
2019-05-08T13:13:29.791Z,6.83
2019-05-08T13:15:59.875Z,5.73
2019-05-08T13:18:32.264Z,5.83
2019-05-08T13:21:02.013Z,5.37
2019-05-08T13:23:31.382Z,5.93
2019-05-08T13:26:00.605Z,5.20
2019-05-08T13:28:30.021Z,6.33
2019-05-08T13:31:01.407Z,5.30
2019-05-08T13:33:30.666Z,5.07
2019-05-08T13:36:00.468Z,6.30
2019-05-08T13:38:40.424Z,5.83
2019-05-08T13:41:07.860Z,6.07
2019-05-08T13:43:40.739Z,5.70
2019-05-08T13:46:09.314Z,5.60
2019-05-08T13:48:39.966Z,5.60
2019-05-08T13:51:29.296Z,6.07
2019-05-08T13:54:06.633Z,5.83
2019-05-08T13:56:45.453Z,5.80
2019-05-08T13:59:09.840Z,6.37
2019-05-08T14:01:39.278Z,5.50
2019-05-08T14:04:09.346Z,6.20
2019-05-08T14:06:40.146Z,5.80
2019-05-08T14:09:10.734Z,6.10
2019-05-08T14:11:40.655Z,5.80
2019-05-08T14:14:11.382Z,6.43
2019-05-08T14:16:41.131Z,5.53
2019-05-08T14:19:11.199Z,6.60
2019-05-08T14:21:40.597Z,6.60
2019-05-08T14:24:10.789Z,6.00
2019-05-08T14:26:41.803Z,5.50
2019-05-08T14:29:11.688Z,5.60
2019-05-08T14:31:48.204Z,6.00
2019-05-08T14:34:29.391Z,6.00
2019-05-08T14:37:09.253Z,5.97
2019-05-08T14:39:40.033Z,5.80
2019-05-08T14:42:09.720Z,6.07
2019-05-08T14:44:39.297Z,5.07
2019-05-08T14:47:10.392Z,5.20
2019-05-08T14:49:40.847Z,5.87
2019-05-08T14:52:10.830Z,5.90
2019-05-08T14:54:40.711Z,5.57
2019-05-08T14:57:10.115Z,4.90
2019-05-08T14:59:41.646Z,5.50
2019-05-08T15:02:16.610Z,5.37
2019-05-08T15:04:46.388Z,5.27
2019-05-08T15:07:16.018Z,5.70
2019-05-08T15:09:49.453Z,4.90
2019-05-08T15:12:20.311Z,5.43
2019-05-08T15:14:50.328Z,6.03
2019-05-08T15:17:25.370Z,4.93
2019-05-08T15:20:10.108Z,5.10
2019-05-08T15:22:40.120Z,5.00
2019-05-08T15:25:15.358Z,4.80
2019-05-08T15:27:46.274Z,5.77
2019-05-08T15:30:38.096Z,5.53
2019-05-08T15:33:15.157Z,5.20
2019-05-08T15:35:53.735Z,4.17
2019-05-08T15:38:40.485Z,4.73
2019-05-08T15:41:15.093Z,4.97
2019-05-08T15:43:45.674Z,5.00
2019-05-08T15:46:49.680Z,5.00
2019-05-08T15:49:19.868Z,5.20
2019-05-08T15:51:53.483Z,4.80
2019-05-08T15:54:27.146Z,5.13
2019-05-08T15:57:10.516Z,4.03
2019-05-08T15:59:40.520Z,5.10
2019-05-08T16:02:10.450Z,4.70
2019-05-08T16:04:41.314Z,4.50
2019-05-08T16:07:10.783Z,4.20
2019-05-08T16:09:40.156Z,4.00
2019-05-08T16:12:39.615Z,4.50
2019-05-08T16:15:10.942Z,4.20
2019-05-08T16:17:40.522Z,5.93
2019-05-08T16:20:10.104Z,4.10
2019-05-08T16:22:43.995Z,4.10
2019-05-08T16:25:12.123Z,4.00
2019-05-08T16:27:41.526Z,4.30
2019-05-08T16:30:36.464Z,4.33
2019-05-08T16:33:26.250Z,4.83
2019-05-08T16:35:58.483Z,4.33
2019-05-08T16:38:28.809Z,4.57
2019-05-08T16:40:58.252Z,3.97
2019-05-08T16:43:27.700Z,4.50
2019-05-08T16:46:00.027Z,3.70
2019-05-08T16:48:47.196Z,4.20
2019-05-08T16:51:16.937Z,4.10
2019-05-08T16:53:46.614Z,4.80
2019-05-08T16:56:28.212Z,4.70
2019-05-08T16:58:58.663Z,5.27
2019-05-08T17:01:27.981Z,4.90
2019-05-08T17:03:59.305Z,4.90
2019-05-08T17:06:35.549Z,4.60
2019-05-08T17:09:08.499Z,3.80
2019-05-08T17:11:40.299Z,3.60
2019-05-08T17:14:09.777Z,3.97
2019-05-08T17:16:39.168Z,3.37
2019-05-08T17:19:08.801Z,4.00
2019-05-08T17:22:09.007Z,5.03
2019-05-08T17:25:09.022Z,3.10
2019-05-08T17:27:47.583Z,3.43
2019-05-08T17:30:35.904Z,3.53
2019-05-08T17:33:05.199Z,3.40
2019-05-08T17:35:34.663Z,3.00
2019-05-08T17:38:23.925Z,3.43
2019-05-08T17:40:54.829Z,3.50
2019-05-08T17:43:24.171Z,3.90
2019-05-08T17:45:55.257Z,4.13
2019-05-08T17:48:24.557Z,4.40
2019-05-08T17:50:53.879Z,3.20
2019-05-08T17:53:33.955Z,3.50
2019-05-08T17:56:03.316Z,3.40
2019-05-08T17:58:34.881Z,4.47
2019-05-08T18:01:08.878Z,4.33
2019-05-08T18:03:38.234Z,3.40
2019-05-08T18:06:07.524Z,3.73
2019-05-08T18:08:36.848Z,3.80
2019-05-08T18:11:06.225Z,3.23
2019-05-08T18:13:35.674Z,3.90
2019-05-08T18:16:33.739Z,4.40
2019-05-08T18:19:06.632Z,4.20
2019-05-08T18:21:55.554Z,4.73
2019-05-08T18:24:46.990Z,4.37
2019-05-08T18:27:18.486Z,4.53
2019-05-08T18:29:53.612Z,3.80
2019-05-08T18:32:33.845Z,5.17
2019-05-08T18:35:08.256Z,5.93
2019-05-08T18:37:48.335Z,5.73
2019-05-08T18:40:08.707Z,4.50
2019-05-08T18:42:38.042Z,4.73
2019-05-08T18:45:07.963Z,5.17
2019-05-08T18:47:37.364Z,5.10
2019-05-08T18:50:07.934Z,5.80
2019-05-08T18:52:39.519Z,5.07
2019-05-08T18:55:13.569Z,4.63
2019-05-08T18:57:44.340Z,5.63
2019-05-08T19:00:15.833Z,5.30
2019-05-08T19:02:54.432Z,5.70
2019-05-08T19:05:24.134Z,6.57
2019-05-08T19:08:01.088Z,5.03
2019-05-08T19:10:25.029Z,5.93
2019-05-08T19:12:56.296Z,5.50
2019-05-08T19:15:34.779Z,4.40
2019-05-08T19:18:05.043Z,4.90
2019-05-08T19:20:48.515Z,4.73
2019-05-08T19:23:20.208Z,5.30
2019-05-08T19:25:49.903Z,5.07
2019-05-08T19:28:19.564Z,5.20
2019-05-08T19:30:48.977Z,5.17
2019-05-08T19:33:29.321Z,5.27
2019-05-08T19:35:59.603Z,5.37
2019-05-08T19:38:29.610Z,4.73
2019-05-08T19:41:04.267Z,4.43
2019-05-08T19:43:34.011Z,4.20
2019-05-08T19:46:05.409Z,4.27
2019-05-08T19:48:34.702Z,4.53
2019-05-08T19:51:04.625Z,4.00
2019-05-08T19:53:34.215Z,3.27
2019-05-08T19:56:03.832Z,4.20
2019-05-08T19:58:34.071Z,3.73
2019-05-08T20:01:56.040Z,3.77
2019-05-08T20:04:36.571Z,2.90
2019-05-08T20:06:56.380Z,3.70
2019-05-08T20:09:25.709Z,4.00
2019-05-08T20:11:54.998Z,3.67
2019-05-08T20:14:25.762Z,3.63
2019-05-08T20:16:55.903Z,3.23
2019-05-08T20:19:31.202Z,4.00
2019-05-08T20:22:03.885Z,3.70
2019-05-08T20:24:34.052Z,3.30
2019-05-08T20:27:04.096Z,3.70
2019-05-08T20:29:33.909Z,3.77
2019-05-08T20:32:05.678Z,3.00
2019-05-08T20:34:35.744Z,3.33
2019-05-08T20:37:05.280Z,2.90
2019-05-08T20:39:34.569Z,3.50
2019-05-08T20:42:03.938Z,3.47
2019-05-08T20:44:33.705Z,3.00
2019-05-08T20:47:04.440Z,3.53
2019-05-08T20:49:33.679Z,2.97
2019-05-08T20:52:04.871Z,2.93
2019-05-08T20:54:34.112Z,2.60
2019-05-08T20:57:03.286Z,2.67
2019-05-08T20:59:33.309Z,2.60
2019-05-08T21:02:04.296Z,2.47
2019-05-08T21:04:33.781Z,2.53
2019-05-08T21:07:03.632Z,2.00
2019-05-08T21:09:33.646Z,2.30
2019-05-08T21:12:04.701Z,2.40
2019-05-08T21:14:34.284Z,2.43
2019-05-08T21:17:03.911Z,1.87
2019-05-08T21:19:34.069Z,2.10
2019-05-08T21:22:28.459Z,2.07
2019-05-08T21:25:01.048Z,1.73
2019-05-08T21:27:28.841Z,2.10
2019-05-08T21:29:58.255Z,2.00
2019-05-08T21:32:27.537Z,1.83
2019-05-08T21:34:56.909Z,2.00
2019-05-08T21:37:26.171Z,2.20
2019-05-08T21:39:55.579Z,2.40
2019-05-08T21:42:25.924Z,2.53
2019-05-08T21:44:55.297Z,1.90
2019-05-08T21:47:24.610Z,2.17
2019-05-08T21:49:59.519Z,2.60
2019-05-08T21:52:28.170Z,2.50
2019-05-08T21:54:57.371Z,2.20
2019-05-08T21:57:26.672Z,2.67
2019-05-08T21:59:56.095Z,2.50
2019-05-08T22:02:33.462Z,2.40
2019-05-08T22:05:04.499Z,2.53
2019-05-08T22:07:34.757Z,2.80
2019-05-08T22:10:05.534Z,2.47
2019-05-08T22:12:34.783Z,2.57
2019-05-08T22:15:04.358Z,2.40
2019-05-08T22:17:33.758Z,2.60
2019-05-08T22:20:04.782Z,2.80
2019-05-08T22:22:34.090Z,2.67
2019-05-08T22:25:03.947Z,3.10
2019-05-08T22:27:35.149Z,3.17
2019-05-08T22:30:05.212Z,2.60
2019-05-08T22:32:34.547Z,3.07
2019-05-08T22:35:25.252Z,2.67
2019-05-08T22:37:59.660Z,2.40
2019-05-08T22:40:30.618Z,2.50
2019-05-08T22:42:59.904Z,3.00
2019-05-08T22:45:29.220Z,2.50
2019-05-08T22:47:58.466Z,3.37
2019-05-08T22:50:27.884Z,2.63
2019-05-08T22:52:57.155Z,3.30
2019-05-08T22:55:26.348Z,3.47
2019-05-08T22:57:55.618Z,3.90
2019-05-08T23:00:28.704Z,2.93
2019-05-08T23:02:57.952Z,2.97
2019-05-08T23:05:27.236Z,3.10
2019-05-08T23:07:56.436Z,3.60
2019-05-08T23:10:26.692Z,3.53
2019-05-08T23:13:14.446Z,3.10
2019-05-08T23:15:47.446Z,3.20
2019-05-08T23:18:16.815Z,3.30
2019-05-08T23:20:46.018Z,3.43
2019-05-08T23:23:16.046Z,2.97
2019-05-08T23:25:47.216Z,3.50
2019-05-08T23:28:16.740Z,3.33
2019-05-08T23:30:46.686Z,3.60
2019-05-08T23:33:16.097Z,3.20
2019-05-08T23:35:55.391Z,2.80
2019-05-08T23:38:24.559Z,2.50
2019-05-08T23:40:54.468Z,2.73
2019-05-08T23:43:41.783Z,2.93
2019-05-08T23:46:13.466Z,2.73
2019-05-08T23:48:44.097Z,2.80
2019-05-08T23:51:14.184Z,2.80
2019-05-08T23:53:43.603Z,2.63
2019-05-08T23:56:14.168Z,3.97
2019-05-08T23:58:44.375Z,2.87
